sensor_id;sensor_type;location;lat;lon;timestamp;temperature;humidity
76785;SHT30;66893;44.316;0.092;2023-07-20T00:00:25;27.90;49.09
76785;SHT30;66893;44.316;0.092;2023-07-20T00:02:50;27.89;49.09
76785;SHT30;66893;44.316;0.092;2023-07-20T00:05:16;27.88;49.14
76785;SHT30;66893;44.316;0.092;2023-07-20T00:07:46;27.85;49.18
76785;SHT30;66893;44.316;0.092;2023-07-20T00:10:11;27.83;49.16
76785;SHT30;66893;44.316;0.092;2023-07-20T00:12:37;27.82;49.19
76785;SHT30;66893;44.316;0.092;2023-07-20T00:15:02;27.81;49.24
76785;SHT30;66893;44.316;0.092;2023-07-20T00:17:28;27.79;49.25
76785;SHT30;66893;44.316;0.092;2023-07-20T00:19:53;27.76;49.29
76785;SHT30;66893;44.316;0.092;2023-07-20T00:22:19;27.78;49.30
76785;SHT30;66893;44.316;0.092;2023-07-20T00:24:44;27.75;49.28
76785;SHT30;66893;44.316;0.092;2023-07-20T00:27:10;27.72;49.29
76785;SHT30;66893;44.316;0.092;2023-07-20T00:29:35;27.70;49.34
76785;SHT30;66893;44.316;0.092;2023-07-20T00:32:00;27.69;49.37
76785;SHT30;66893;44.316;0.092;2023-07-20T00:34:26;27.69;49.40
76785;SHT30;66893;44.316;0.092;2023-07-20T00:36:51;27.66;49.38
76785;SHT30;66893;44.316;0.092;2023-07-20T00:39:17;27.65;49.39
76785;SHT30;66893;44.316;0.092;2023-07-20T00:41:42;27.61;49.39
76785;SHT30;66893;44.316;0.092;2023-07-20T00:44:08;27.61;49.44
76785;SHT30;66893;44.316;0.092;2023-07-20T00:46:33;27.59;49.49
76785;SHT30;66893;44.316;0.092;2023-07-20T00:48:59;27.56;49.50
76785;SHT30;66893;44.316;0.092;2023-07-20T00:51:26;27.58;49.47
76785;SHT30;66893;44.316;0.092;2023-07-20T00:53:52;27.55;49.52
76785;SHT30;66893;44.316;0.092;2023-07-20T00:56:19;27.52;49.48
76785;SHT30;66893;44.316;0.092;2023-07-20T00:58:44;27.54;49.56
76785;SHT30;66893;44.316;0.092;2023-07-20T01:01:10;27.51;49.55
76785;SHT30;66893;44.316;0.092;2023-07-20T01:03:36;27.48;49.59
76785;SHT30;66893;44.316;0.092;2023-07-20T01:06:29;27.45;49.56
76785;SHT30;66893;44.316;0.092;2023-07-20T01:14:02;27.39;49.65
76785;SHT30;66893;44.316;0.092;2023-07-20T01:16:28;27.38;49.67
76785;SHT30;66893;44.316;0.092;2023-07-20T01:18:53;27.35;49.67
76785;SHT30;66893;44.316;0.092;2023-07-20T01:21:27;27.35;49.73
76785;SHT30;66893;44.316;0.092;2023-07-20T01:30:02;27.27;49.76
76785;SHT30;66893;44.316;0.092;2023-07-20T01:32:30;27.26;49.75
76785;SHT30;66893;44.316;0.092;2023-07-20T01:34:56;27.24;49.78
76785;SHT30;66893;44.316;0.092;2023-07-20T01:37:24;27.23;49.79
76785;SHT30;66893;44.316;0.092;2023-07-20T01:39:54;27.21;49.75
76785;SHT30;66893;44.316;0.092;2023-07-20T01:42:23;27.18;49.79
76785;SHT30;66893;44.316;0.092;2023-07-20T01:44:52;27.15;49.83
76785;SHT30;66893;44.316;0.092;2023-07-20T01:47:19;27.14;49.83
76785;SHT30;66893;44.316;0.092;2023-07-20T01:49:44;27.10;49.83
76785;SHT30;66893;44.316;0.092;2023-07-20T01:52:10;27.11;49.81
76785;SHT30;66893;44.316;0.092;2023-07-20T01:54:35;27.11;49.84
76785;SHT30;66893;44.316;0.092;2023-07-20T01:57:01;27.07;49.89
76785;SHT30;66893;44.316;0.092;2023-07-20T01:59:27;27.04;49.92
76785;SHT30;66893;44.316;0.092;2023-07-20T02:01:52;27.04;49.89
76785;SHT30;66893;44.316;0.092;2023-07-20T02:04:17;27.01;49.90
76785;SHT30;66893;44.316;0.092;2023-07-20T02:06:43;27.00;49.91
76785;SHT30;66893;44.316;0.092;2023-07-20T02:09:08;26.99;49.91
76785;SHT30;66893;44.316;0.092;2023-07-20T02:11:34;26.94;49.89
76785;SHT30;66893;44.316;0.092;2023-07-20T02:13:59;26.94;49.95
76785;SHT30;66893;44.316;0.092;2023-07-20T02:16:25;26.93;49.95
76785;SHT30;66893;44.316;0.092;2023-07-20T02:18:50;26.91;49.94
76785;SHT30;66893;44.316;0.092;2023-07-20T02:21:16;26.89;49.96
76785;SHT30;66893;44.316;0.092;2023-07-20T02:23:41;26.84;50.01
76785;SHT30;66893;44.316;0.092;2023-07-20T02:26:07;26.87;49.98
76785;SHT30;66893;44.316;0.092;2023-07-20T02:28:32;26.82;50.01
76785;SHT30;66893;44.316;0.092;2023-07-20T02:30:57;26.80;50.06
76785;SHT30;66893;44.316;0.092;2023-07-20T02:33:23;26.80;50.01
76785;SHT30;66893;44.316;0.092;2023-07-20T02:35:48;26.78;50.04
76785;SHT30;66893;44.316;0.092;2023-07-20T02:38:14;26.76;50.11
76785;SHT30;66893;44.316;0.092;2023-07-20T02:40:39;26.75;50.07
76785;SHT30;66893;44.316;0.092;2023-07-20T02:43:05;26.71;50.10
76785;SHT30;66893;44.316;0.092;2023-07-20T02:45:30;26.71;50.07
76785;SHT30;66893;44.316;0.092;2023-07-20T02:47:56;26.68;50.14
76785;SHT30;66893;44.316;0.092;2023-07-20T02:50:22;26.69;50.13
76785;SHT30;66893;44.316;0.092;2023-07-20T02:52:47;26.68;50.14
76785;SHT30;66893;44.316;0.092;2023-07-20T02:55:13;26.63;50.14
76785;SHT30;66893;44.316;0.092;2023-07-20T02:57:38;26.60;50.23
76785;SHT30;66893;44.316;0.092;2023-07-20T03:00:04;26.60;50.20
76785;SHT30;66893;44.316;0.092;2023-07-20T03:02:31;26.57;50.17
76785;SHT30;66893;44.316;0.092;2023-07-20T03:04:57;26.55;50.21
76785;SHT30;66893;44.316;0.092;2023-07-20T03:07:27;26.55;50.21
76785;SHT30;66893;44.316;0.092;2023-07-20T03:09:54;26.53;50.25
76785;SHT30;66893;44.316;0.092;2023-07-20T03:12:20;26.53;50.25
76785;SHT30;66893;44.316;0.092;2023-07-20T03:14:46;26.51;50.22
76785;SHT30;66893;44.316;0.092;2023-07-20T03:17:11;26.49;50.21
76785;SHT30;66893;44.316;0.092;2023-07-20T03:19:37;26.48;50.25
76785;SHT30;66893;44.316;0.092;2023-07-20T03:22:02;26.46;50.23
76785;SHT30;66893;44.316;0.092;2023-07-20T03:24:28;26.44;50.35
76785;SHT30;66893;44.316;0.092;2023-07-20T03:26:53;26.42;50.26
76785;SHT30;66893;44.316;0.092;2023-07-20T03:29:18;26.41;50.23
76785;SHT30;66893;44.316;0.092;2023-07-20T03:31:44;26.39;50.29
76785;SHT30;66893;44.316;0.092;2023-07-20T03:34:09;26.38;50.36
76785;SHT30;66893;44.316;0.092;2023-07-20T03:36:35;26.36;50.28
76785;SHT30;66893;44.316;0.092;2023-07-20T03:39:00;26.31;50.31
76785;SHT30;66893;44.316;0.092;2023-07-20T03:41:26;26.31;50.31
76785;SHT30;66893;44.316;0.092;2023-07-20T03:43:51;26.29;50.27
76785;SHT30;66893;44.316;0.092;2023-07-20T03:46:17;26.29;50.31
76785;SHT30;66893;44.316;0.092;2023-07-20T03:48:42;26.28;50.30
76785;SHT30;66893;44.316;0.092;2023-07-20T03:51:08;26.24;50.34
76785;SHT30;66893;44.316;0.092;2023-07-20T03:53:33;26.25;50.28
76785;SHT30;66893;44.316;0.092;2023-07-20T03:55:59;26.21;50.28
76785;SHT30;66893;44.316;0.092;2023-07-20T03:58:24;26.22;50.33
76785;SHT30;66893;44.316;0.092;2023-07-20T04:00:51;26.20;50.25
76785;SHT30;66893;44.316;0.092;2023-07-20T04:03:17;26.18;50.26
76785;SHT30;66893;44.316;0.092;2023-07-20T04:05:44;26.17;50.25
76785;SHT30;66893;44.316;0.092;2023-07-20T04:08:10;26.17;50.25
76785;SHT30;66893;44.316;0.092;2023-07-20T04:10:37;26.14;50.28
76785;SHT30;66893;44.316;0.092;2023-07-20T04:13:03;26.13;50.27
76785;SHT30;66893;44.316;0.092;2023-07-20T04:15:29;26.11;50.29
76785;SHT30;66893;44.316;0.092;2023-07-20T04:17:55;26.10;50.27
76785;SHT30;66893;44.316;0.092;2023-07-20T04:20:22;26.08;50.29
76785;SHT30;66893;44.316;0.092;2023-07-20T04:22:47;26.07;50.29
76785;SHT30;66893;44.316;0.092;2023-07-20T04:25:13;26.04;50.29
76785;SHT30;66893;44.316;0.092;2023-07-20T04:27:38;26.01;50.29
76785;SHT30;66893;44.316;0.092;2023-07-20T04:30:06;26.00;50.28
76785;SHT30;66893;44.316;0.092;2023-07-20T04:32:31;26.00;50.25
76785;SHT30;66893;44.316;0.092;2023-07-20T04:34:59;26.00;50.25
76785;SHT30;66893;44.316;0.092;2023-07-20T04:37:24;25.98;50.29
76785;SHT30;66893;44.316;0.092;2023-07-20T04:39:50;25.98;50.25
76785;SHT30;66893;44.316;0.092;2023-07-20T04:42:15;25.94;50.23
76785;SHT30;66893;44.316;0.092;2023-07-20T04:44:41;25.94;50.24
76785;SHT30;66893;44.316;0.092;2023-07-20T04:47:06;25.93;50.25
76785;SHT30;66893;44.316;0.092;2023-07-20T04:49:33;25.91;50.30
76785;SHT30;66893;44.316;0.092;2023-07-20T04:51:59;25.91;50.30
76785;SHT30;66893;44.316;0.092;2023-07-20T04:54:24;25.90;50.25
76785;SHT30;66893;44.316;0.092;2023-07-20T04:56:52;25.89;50.23
76785;SHT30;66893;44.316;0.092;2023-07-20T04:59:18;25.87;50.26
76785;SHT30;66893;44.316;0.092;2023-07-20T05:01:43;25.87;50.23
76785;SHT30;66893;44.316;0.092;2023-07-20T05:04:09;25.84;50.28
76785;SHT30;66893;44.316;0.092;2023-07-20T05:06:34;25.87;50.22
76785;SHT30;66893;44.316;0.092;2023-07-20T05:09:00;25.84;50.28
76785;SHT30;66893;44.316;0.092;2023-07-20T05:11:25;25.87;50.31
76785;SHT30;66893;44.316;0.092;2023-07-20T05:13:51;25.84;50.29
76785;SHT30;66893;44.316;0.092;2023-07-20T05:16:16;25.81;50.37
76785;SHT30;66893;44.316;0.092;2023-07-20T05:18:42;25.80;50.37
76785;SHT30;66893;44.316;0.092;2023-07-20T05:21:07;25.80;50.33
76785;SHT30;66893;44.316;0.092;2023-07-20T05:23:33;25.81;50.31
76785;SHT30;66893;44.316;0.092;2023-07-20T05:25:59;25.79;50.34
76785;SHT30;66893;44.316;0.092;2023-07-20T05:28:25;25.79;50.39
76785;SHT30;66893;44.316;0.092;2023-07-20T05:30:54;25.69;50.21
76785;SHT30;66893;44.316;0.092;2023-07-20T05:33:20;25.32;50.42
76785;SHT30;66893;44.316;0.092;2023-07-20T05:35:47;25.00;50.76
76785;SHT30;66893;44.316;0.092;2023-07-20T05:38:12;24.69;51.06
76785;SHT30;66893;44.316;0.092;2023-07-20T05:40:39;24.39;51.48
76785;SHT30;66893;44.316;0.092;2023-07-20T05:43:05;24.11;51.88
76785;SHT30;66893;44.316;0.092;2023-07-20T05:45:31;23.90;52.12
76785;SHT30;66893;44.316;0.092;2023-07-20T05:47:56;23.70;52.42
76785;SHT30;66893;44.316;0.092;2023-07-20T05:50:21;23.52;52.74
76785;SHT30;66893;44.316;0.092;2023-07-20T05:52:47;23.38;53.08
76785;SHT30;66893;44.316;0.092;2023-07-20T05:55:13;23.20;53.31
76785;SHT30;66893;44.316;0.092;2023-07-20T05:57:38;23.08;53.75
76785;SHT30;66893;44.316;0.092;2023-07-20T06:00:08;22.97;53.99
76785;SHT30;66893;44.316;0.092;2023-07-20T06:02:33;22.91;54.54
76785;SHT30;66893;44.316;0.092;2023-07-20T06:04:59;22.81;54.33
76785;SHT30;66893;44.316;0.092;2023-07-20T06:07:24;22.71;55.03
76785;SHT30;66893;44.316;0.092;2023-07-20T06:09:50;22.65;54.87
76785;SHT30;66893;44.316;0.092;2023-07-20T06:12:15;22.60;55.38
76785;SHT30;66893;44.316;0.092;2023-07-20T06:14:40;22.57;55.64
76785;SHT30;66893;44.316;0.092;2023-07-20T06:17:06;22.54;56.14
76785;SHT30;66893;44.316;0.092;2023-07-20T06:19:31;22.54;55.76
76785;SHT30;66893;44.316;0.092;2023-07-20T06:21:57;22.53;56.40
76785;SHT30;66893;44.316;0.092;2023-07-20T06:24:22;22.52;56.32
76785;SHT30;66893;44.316;0.092;2023-07-20T06:26:48;22.49;56.48
76785;SHT30;66893;44.316;0.092;2023-07-20T06:29:13;22.49;56.87
76785;SHT30;66893;44.316;0.092;2023-07-20T06:31:38;22.52;56.92
76785;SHT30;66893;44.316;0.092;2023-07-20T06:34:04;22.54;56.71
76785;SHT30;66893;44.316;0.092;2023-07-20T06:36:29;22.54;56.99
76785;SHT30;66893;44.316;0.092;2023-07-20T06:38:55;22.59;57.00
76785;SHT30;66893;44.316;0.092;2023-07-20T06:41:21;22.61;56.97
76785;SHT30;66893;44.316;0.092;2023-07-20T06:43:47;22.64;57.40
76785;SHT30;66893;44.316;0.092;2023-07-20T06:46:13;22.68;57.41
76785;SHT30;66893;44.316;0.092;2023-07-20T06:48:39;22.74;57.46
76785;SHT30;66893;44.316;0.092;2023-07-20T06:51:05;22.78;57.66
76785;SHT30;66893;44.316;0.092;2023-07-20T06:53:30;22.81;57.15
76785;SHT30;66893;44.316;0.092;2023-07-20T06:55:56;22.87;57.59
76785;SHT30;66893;44.316;0.092;2023-07-20T06:58:25;22.88;57.69
76785;SHT30;66893;44.316;0.092;2023-07-20T07:00:50;22.95;57.89
76785;SHT30;66893;44.316;0.092;2023-07-20T07:03:16;23.01;57.94
76785;SHT30;66893;44.316;0.092;2023-07-20T07:05:42;23.12;58.15
76785;SHT30;66893;44.316;0.092;2023-07-20T07:08:08;23.20;58.20
76785;SHT30;66893;44.316;0.092;2023-07-20T07:10:35;23.36;58.09
76785;SHT30;66893;44.316;0.092;2023-07-20T07:13:01;23.50;57.96
76785;SHT30;66893;44.316;0.092;2023-07-20T07:15:27;23.62;57.74
76785;SHT30;66893;44.316;0.092;2023-07-20T07:17:52;23.75;57.51
76785;SHT30;66893;44.316;0.092;2023-07-20T07:20:18;23.87;57.36
76785;SHT30;66893;44.316;0.092;2023-07-20T07:22:43;23.97;57.36
76785;SHT30;66893;44.316;0.092;2023-07-20T07:25:10;24.11;57.10
76785;SHT30;66893;44.316;0.092;2023-07-20T07:27:36;24.17;56.78
76785;SHT30;66893;44.316;0.092;2023-07-20T07:30:04;24.28;56.62
76785;SHT30;66893;44.316;0.092;2023-07-20T07:32:30;24.35;56.48
76785;SHT30;66893;44.316;0.092;2023-07-20T07:34:56;24.43;56.40
76785;SHT30;66893;44.316;0.092;2023-07-20T07:37:23;24.53;56.22
76785;SHT30;66893;44.316;0.092;2023-07-20T07:39:49;24.62;56.15
76785;SHT30;66893;44.316;0.092;2023-07-20T07:42:14;24.66;56.05
76785;SHT30;66893;44.316;0.092;2023-07-20T07:44:40;24.76;55.95
76785;SHT30;66893;44.316;0.092;2023-07-20T07:47:05;24.81;55.86
76785;SHT30;66893;44.316;0.092;2023-07-20T07:49:31;24.88;55.79
76785;SHT30;66893;44.316;0.092;2023-07-20T07:51:57;24.95;55.71
76785;SHT30;66893;44.316;0.092;2023-07-20T07:54:22;25.03;55.62
76785;SHT30;66893;44.316;0.092;2023-07-20T07:56:48;25.07;55.58
76785;SHT30;66893;44.316;0.092;2023-07-20T07:59:13;25.11;55.50
76785;SHT30;66893;44.316;0.092;2023-07-20T08:01:39;25.11;55.44
76785;SHT30;66893;44.316;0.092;2023-07-20T08:04:04;25.03;55.44
76785;SHT30;66893;44.316;0.092;2023-07-20T08:06:29;24.97;55.46
76785;SHT30;66893;44.316;0.092;2023-07-20T08:08:56;24.91;55.62
76785;SHT30;66893;44.316;0.092;2023-07-20T08:11:22;24.87;55.67
76785;SHT30;66893;44.316;0.092;2023-07-20T08:13:47;24.87;55.77
76785;SHT30;66893;44.316;0.092;2023-07-20T08:16:13;24.83;55.68
76785;SHT30;66893;44.316;0.092;2023-07-20T08:18:39;24.81;55.80
76785;SHT30;66893;44.316;0.092;2023-07-20T08:21:04;24.81;55.58
76785;SHT30;66893;44.316;0.092;2023-07-20T08:23:30;24.83;55.68
76785;SHT30;66893;44.316;0.092;2023-07-20T08:25:55;24.77;55.66
76785;SHT30;66893;44.316;0.092;2023-07-20T08:28:21;24.83;55.61
76785;SHT30;66893;44.316;0.092;2023-07-20T08:30:47;24.79;55.71
76785;SHT30;66893;44.316;0.092;2023-07-20T08:33:14;24.81;55.78
76785;SHT30;66893;44.316;0.092;2023-07-20T08:35:40;24.84;55.70
76785;SHT30;66893;44.316;0.092;2023-07-20T08:38:06;24.90;55.63
76785;SHT30;66893;44.316;0.092;2023-07-20T08:40:33;24.92;55.57
76785;SHT30;66893;44.316;0.092;2023-07-20T08:42:59;24.95;55.43
76785;SHT30;66893;44.316;0.092;2023-07-20T08:45:28;25.00;55.32
76785;SHT30;66893;44.316;0.092;2023-07-20T08:47:58;25.01;55.15
76785;SHT30;66893;44.316;0.092;2023-07-20T08:50:25;25.03;55.19
76785;SHT30;66893;44.316;0.092;2023-07-20T08:52:52;25.10;55.07
76785;SHT30;66893;44.316;0.092;2023-07-20T08:55:20;25.11;54.93
76785;SHT30;66893;44.316;0.092;2023-07-20T08:57:46;25.11;54.81
76785;SHT30;66893;44.316;0.092;2023-07-20T09:00:14;25.12;54.87
76785;SHT30;66893;44.316;0.092;2023-07-20T09:02:41;25.19;54.82
76785;SHT30;66893;44.316;0.092;2023-07-20T09:05:10;25.24;54.78
76785;SHT30;66893;44.316;0.092;2023-07-20T09:07:36;25.29;54.76
76785;SHT30;66893;44.316;0.092;2023-07-20T09:10:02;25.38;54.59
76785;SHT30;66893;44.316;0.092;2023-07-20T09:12:41;25.39;54.51
76785;SHT30;66893;44.316;0.092;2023-07-20T09:15:08;25.42;54.58
76785;SHT30;66893;44.316;0.092;2023-07-20T09:17:34;25.46;54.54
76785;SHT30;66893;44.316;0.092;2023-07-20T09:20:04;25.52;54.38
76785;SHT30;66893;44.316;0.092;2023-07-20T09:22:37;25.56;54.33
76785;SHT30;66893;44.316;0.092;2023-07-20T09:25:16;25.61;54.09
76785;SHT30;66893;44.316;0.092;2023-07-20T09:27:46;25.65;54.07
76785;SHT30;66893;44.316;0.092;2023-07-20T09:30:14;25.69;54.12
76785;SHT30;66893;44.316;0.092;2023-07-20T09:32:42;25.76;54.26
76785;SHT30;66893;44.316;0.092;2023-07-20T09:35:18;25.86;53.92
76785;SHT30;66893;44.316;0.092;2023-07-20T09:37:57;25.90;53.82
76785;SHT30;66893;44.316;0.092;2023-07-20T09:40:24;25.96;53.88
76785;SHT30;66893;44.316;0.092;2023-07-20T09:42:52;25.97;54.02
76785;SHT30;66893;44.316;0.092;2023-07-20T09:45:28;26.05;53.90
76785;SHT30;66893;44.316;0.092;2023-07-20T09:48:03;26.08;53.88
76785;SHT30;66893;44.316;0.092;2023-07-20T09:50:29;26.14;53.90
76785;SHT30;66893;44.316;0.092;2023-07-20T09:52:55;26.21;53.86
76785;SHT30;66893;44.316;0.092;2023-07-20T09:55:21;26.24;53.76
76785;SHT30;66893;44.316;0.092;2023-07-20T09:57:47;26.29;53.80
76785;SHT30;66893;44.316;0.092;2023-07-20T10:00:13;26.32;53.78
76785;SHT30;66893;44.316;0.092;2023-07-20T10:02:49;26.35;53.75
76785;SHT30;66893;44.316;0.092;2023-07-20T10:05:17;26.41;53.76
76785;SHT30;66893;44.316;0.092;2023-07-20T10:07:50;26.42;53.62
76785;SHT30;66893;44.316;0.092;2023-07-20T10:10:17;26.48;53.70
76785;SHT30;66893;44.316;0.092;2023-07-20T10:12:48;26.52;53.61
76785;SHT30;66893;44.316;0.092;2023-07-20T10:15:46;26.55;53.50
76785;SHT30;66893;44.316;0.092;2023-07-20T10:18:18;26.60;53.50
76785;SHT30;66893;44.316;0.092;2023-07-20T10:20:49;26.63;53.48
76785;SHT30;66893;44.316;0.092;2023-07-20T10:23:17;26.68;53.35
76785;SHT30;66893;44.316;0.092;2023-07-20T10:25:43;26.72;53.28
76785;SHT30;66893;44.316;0.092;2023-07-20T10:28:10;26.78;53.36
76785;SHT30;66893;44.316;0.092;2023-07-20T10:30:36;26.79;53.22
76785;SHT30;66893;44.316;0.092;2023-07-20T10:33:02;26.82;53.28
76785;SHT30;66893;44.316;0.092;2023-07-20T10:35:28;26.89;53.30
76785;SHT30;66893;44.316;0.092;2023-07-20T10:37:59;26.93;53.54
76785;SHT30;66893;44.316;0.092;2023-07-20T10:40:30;26.97;53.40
76785;SHT30;66893;44.316;0.092;2023-07-20T10:43:05;27.03;53.42
76785;SHT30;66893;44.316;0.092;2023-07-20T10:48:05;27.14;53.21
76785;SHT30;66893;44.316;0.092;2023-07-20T10:50:32;27.17;53.25
76785;SHT30;66893;44.316;0.092;2023-07-20T10:53:09;27.21;53.10
76785;SHT30;66893;44.316;0.092;2023-07-20T10:55:35;27.24;53.07
76785;SHT30;66893;44.316;0.092;2023-07-20T10:58:08;27.24;53.01
76785;SHT30;66893;44.316;0.092;2023-07-20T11:00:57;27.27;53.00
76785;SHT30;66893;44.316;0.092;2023-07-20T11:03:30;27.28;52.81
76785;SHT30;66893;44.316;0.092;2023-07-20T11:05:57;27.30;52.73
76785;SHT30;66893;44.316;0.092;2023-07-20T11:08:39;27.31;52.70
76785;SHT30;66893;44.316;0.092;2023-07-20T11:19:34;27.44;52.39
76785;SHT30;66893;44.316;0.092;2023-07-20T11:21:59;27.49;52.40
76785;SHT30;66893;44.316;0.092;2023-07-20T11:24:24;27.49;52.16
76785;SHT30;66893;44.316;0.092;2023-07-20T11:26:52;27.52;52.10
76785;SHT30;66893;44.316;0.092;2023-07-20T11:29:19;27.58;52.06
76785;SHT30;66893;44.316;0.092;2023-07-20T11:31:46;27.59;52.08
76785;SHT30;66893;44.316;0.092;2023-07-20T11:34:17;27.66;51.90
76785;SHT30;66893;44.316;0.092;2023-07-20T11:36:45;27.67;51.78
76785;SHT30;66893;44.316;0.092;2023-07-20T11:39:12;27.75;51.72
76785;SHT30;66893;44.316;0.092;2023-07-20T11:41:38;27.81;51.33
76785;SHT30;66893;44.316;0.092;2023-07-20T11:44:05;27.85;51.05
76785;SHT30;66893;44.316;0.092;2023-07-20T11:46:39;27.85;50.90
76785;SHT30;66893;44.316;0.092;2023-07-20T11:49:04;27.85;50.72
76785;SHT30;66893;44.316;0.092;2023-07-20T11:51:30;27.88;50.67
76785;SHT30;66893;44.316;0.092;2023-07-20T11:53:57;27.93;50.88
76785;SHT30;66893;44.316;0.092;2023-07-20T11:56:24;27.97;50.92
76785;SHT30;66893;44.316;0.092;2023-07-20T11:58:50;28.03;51.16
76785;SHT30;66893;44.316;0.092;2023-07-20T12:01:17;28.11;51.31
76785;SHT30;66893;44.316;0.092;2023-07-20T12:03:43;28.14;51.31
76785;SHT30;66893;44.316;0.092;2023-07-20T12:06:10;28.22;51.38
76785;SHT30;66893;44.316;0.092;2023-07-20T12:08:42;28.27;51.49
76785;SHT30;66893;44.316;0.092;2023-07-20T12:11:08;28.37;51.57
76785;SHT30;66893;44.316;0.092;2023-07-20T12:13:38;28.41;51.63
76785;SHT30;66893;44.316;0.092;2023-07-20T12:16:09;28.51;51.80
76785;SHT30;66893;44.316;0.092;2023-07-20T12:18:35;28.56;51.92
76785;SHT30;66893;44.316;0.092;2023-07-20T12:21:01;28.64;51.84
76785;SHT30;66893;44.316;0.092;2023-07-20T12:23:35;28.69;51.96
76785;SHT30;66893;44.316;0.092;2023-07-20T12:26:01;28.76;51.61
76785;SHT30;66893;44.316;0.092;2023-07-20T12:28:27;28.83;51.71
76785;SHT30;66893;44.316;0.092;2023-07-20T12:30:53;28.90;51.69
76785;SHT30;66893;44.316;0.092;2023-07-20T12:33:22;28.98;51.73
76785;SHT30;66893;44.316;0.092;2023-07-20T12:35:48;29.02;51.85
76785;SHT30;66893;44.316;0.092;2023-07-20T12:38:13;29.04;51.92
76785;SHT30;66893;44.316;0.092;2023-07-20T12:40:39;29.06;51.87
76785;SHT30;66893;44.316;0.092;2023-07-20T12:43:05;29.10;51.96
76785;SHT30;66893;44.316;0.092;2023-07-20T12:45:33;29.19;51.90
76785;SHT30;66893;44.316;0.092;2023-07-20T12:47:59;29.23;51.89
76785;SHT30;66893;44.316;0.092;2023-07-20T12:50:24;29.31;51.89
76785;SHT30;66893;44.316;0.092;2023-07-20T12:52:50;29.37;51.90
76785;SHT30;66893;44.316;0.092;2023-07-20T12:55:15;29.39;51.83
76785;SHT30;66893;44.316;0.092;2023-07-20T12:57:41;29.39;51.68
76785;SHT30;66893;44.316;0.092;2023-07-20T13:00:09;29.44;51.63
76785;SHT30;66893;44.316;0.092;2023-07-20T13:02:35;29.45;51.74
76785;SHT30;66893;44.316;0.092;2023-07-20T13:05:02;29.50;51.67
76785;SHT30;66893;44.316;0.092;2023-07-20T13:07:33;29.51;51.63
76785;SHT30;66893;44.316;0.092;2023-07-20T13:09:59;29.54;51.63
76785;SHT30;66893;44.316;0.092;2023-07-20T13:12:26;29.57;51.74
76785;SHT30;66893;44.316;0.092;2023-07-20T13:14:52;29.58;51.39
76785;SHT30;66893;44.316;0.092;2023-07-20T13:17:18;29.57;50.95
76785;SHT30;66893;44.316;0.092;2023-07-20T13:19:43;29.64;50.84
76785;SHT30;66893;44.316;0.092;2023-07-20T13:22:09;29.69;50.62
76785;SHT30;66893;44.316;0.092;2023-07-20T13:24:34;29.68;50.26
76785;SHT30;66893;44.316;0.092;2023-07-20T13:26:59;29.64;50.14
76785;SHT30;66893;44.316;0.092;2023-07-20T13:29:25;29.64;50.10
76785;SHT30;66893;44.316;0.092;2023-07-20T13:31:51;29.62;50.03
76785;SHT30;66893;44.316;0.092;2023-07-20T13:34:16;29.65;49.93
76785;SHT30;66893;44.316;0.092;2023-07-20T13:36:41;29.68;49.91
76785;SHT30;66893;44.316;0.092;2023-07-20T13:39:08;29.68;49.75
76785;SHT30;66893;44.316;0.092;2023-07-20T13:41:34;29.71;49.58
76785;SHT30;66893;44.316;0.092;2023-07-20T13:43:59;29.74;49.49
76785;SHT30;66893;44.316;0.092;2023-07-20T13:46:25;29.75;49.54
76785;SHT30;66893;44.316;0.092;2023-07-20T13:48:51;29.78;49.43
76785;SHT30;66893;44.316;0.092;2023-07-20T13:51:16;29.78;49.64
76785;SHT30;66893;44.316;0.092;2023-07-20T13:53:41;29.81;49.68
76785;SHT30;66893;44.316;0.092;2023-07-20T13:56:07;29.83;49.75
76785;SHT30;66893;44.316;0.092;2023-07-20T13:58:32;29.85;49.76
76785;SHT30;66893;44.316;0.092;2023-07-20T14:00:58;29.85;49.86
76785;SHT30;66893;44.316;0.092;2023-07-20T14:03:24;29.88;49.83
76785;SHT30;66893;44.316;0.092;2023-07-20T14:05:50;29.92;49.77
76785;SHT30;66893;44.316;0.092;2023-07-20T14:08:15;29.92;49.83
76785;SHT30;66893;44.316;0.092;2023-07-20T14:10:41;29.96;49.92
76785;SHT30;66893;44.316;0.092;2023-07-20T14:13:06;29.95;49.91
76785;SHT30;66893;44.316;0.092;2023-07-20T14:15:34;29.96;50.00
76785;SHT30;66893;44.316;0.092;2023-07-20T14:18:00;29.98;49.99
76785;SHT30;66893;44.316;0.092;2023-07-20T14:20:25;29.98;49.97
76785;SHT30;66893;44.316;0.092;2023-07-20T14:22:51;29.98;49.95
76785;SHT30;66893;44.316;0.092;2023-07-20T14:25:16;29.98;49.44
76785;SHT30;66893;44.316;0.092;2023-07-20T14:27:42;29.98;49.45
76785;SHT30;66893;44.316;0.092;2023-07-20T14:30:07;29.99;49.59
76785;SHT30;66893;44.316;0.092;2023-07-20T14:32:34;29.99;49.67
76785;SHT30;66893;44.316;0.092;2023-07-20T14:34:59;30.00;49.66
76785;SHT30;66893;44.316;0.092;2023-07-20T14:37:25;30.02;49.67
76785;SHT30;66893;44.316;0.092;2023-07-20T14:39:50;30.05;49.74
76785;SHT30;66893;44.316;0.092;2023-07-20T14:42:16;30.06;49.76
76785;SHT30;66893;44.316;0.092;2023-07-20T14:44:41;30.06;49.71
76785;SHT30;66893;44.316;0.092;2023-07-20T14:47:06;30.13;49.66
76785;SHT30;66893;44.316;0.092;2023-07-20T14:49:32;30.17;49.57
76785;SHT30;66893;44.316;0.092;2023-07-20T14:51:57;30.23;49.63
76785;SHT30;66893;44.316;0.092;2023-07-20T14:54:23;30.30;49.71
76785;SHT30;66893;44.316;0.092;2023-07-20T14:56:49;30.33;49.63
76785;SHT30;66893;44.316;0.092;2023-07-20T14:59:19;30.40;49.71
76785;SHT30;66893;44.316;0.092;2023-07-20T15:01:45;30.47;49.77
76785;SHT30;66893;44.316;0.092;2023-07-20T15:04:14;30.53;49.70
76785;SHT30;66893;44.316;0.092;2023-07-20T15:06:40;30.58;49.60
76785;SHT30;66893;44.316;0.092;2023-07-20T15:09:06;30.64;49.58
76785;SHT30;66893;44.316;0.092;2023-07-20T15:11:31;30.67;49.68
76785;SHT30;66893;44.316;0.092;2023-07-20T15:13:57;30.69;49.71
76785;SHT30;66893;44.316;0.092;2023-07-20T15:16:25;30.69;49.73
76785;SHT30;66893;44.316;0.092;2023-07-20T15:18:51;30.71;49.74
76785;SHT30;66893;44.316;0.092;2023-07-20T15:21:16;30.74;49.72
76785;SHT30;66893;44.316;0.092;2023-07-20T15:23:43;30.76;49.67
76785;SHT30;66893;44.316;0.092;2023-07-20T15:26:09;30.78;49.76
76785;SHT30;66893;44.316;0.092;2023-07-20T15:28:36;30.76;49.76
76785;SHT30;66893;44.316;0.092;2023-07-20T15:31:03;30.78;49.76
76785;SHT30;66893;44.316;0.092;2023-07-20T15:33:29;30.78;49.78
76785;SHT30;66893;44.316;0.092;2023-07-20T15:35:55;30.78;49.78
76785;SHT30;66893;44.316;0.092;2023-07-20T15:38:20;30.75;49.74
76785;SHT30;66893;44.316;0.092;2023-07-20T15:40:49;30.76;49.65
76785;SHT30;66893;44.316;0.092;2023-07-20T15:43:15;30.78;49.64
76785;SHT30;66893;44.316;0.092;2023-07-20T15:45:40;30.76;49.61
76785;SHT30;66893;44.316;0.092;2023-07-20T15:48:06;30.79;49.55